createdAt,value
2023-03-06T00:00:18.914Z,82.90
2023-03-06T00:02:47.092Z,82.90
2023-03-06T00:05:15.584Z,83.40
2023-03-06T00:07:43.733Z,83.80
2023-03-06T00:10:15.062Z,83.70
2023-03-06T00:12:43.036Z,83.50
2023-03-06T00:15:12.953Z,83.30
2023-03-06T00:17:41.234Z,83.40
2023-03-06T00:20:11.089Z,83.50
2023-03-06T00:22:39.212Z,83.50
2023-03-06T00:25:08.293Z,83.20
2023-03-06T00:27:36.128Z,83.50
2023-03-06T00:30:03.948Z,83.30
2023-03-06T00:32:33.172Z,83.70
2023-03-06T00:35:00.989Z,83.60
2023-03-06T00:37:28.793Z,83.80
2023-03-06T00:39:56.563Z,83.80
2023-03-06T00:42:24.338Z,84.10
2023-03-06T00:44:52.501Z,84.30
2023-03-06T00:47:20.494Z,84.60
2023-03-06T00:49:50.747Z,85.10
2023-03-06T00:52:18.627Z,85.30
2023-03-06T00:54:46.418Z,85.90
2023-03-06T00:57:14.255Z,85.30
2023-03-06T00:59:42.228Z,86.00
2023-03-06T01:02:10.122Z,86.00
2023-03-06T01:04:37.995Z,85.90
2023-03-06T01:07:07.220Z,87.60
2023-03-06T01:09:35.077Z,87.70
2023-03-06T01:12:02.881Z,87.60
2023-03-06T01:14:31.172Z,87.70
2023-03-06T01:16:59.095Z,87.40
2023-03-06T01:19:27.000Z,87.90
2023-03-06T01:21:54.845Z,87.30
2023-03-06T01:24:25.813Z,87.70
2023-03-06T01:26:53.706Z,87.60
2023-03-06T01:29:21.988Z,87.40
2023-03-06T01:31:49.810Z,87.60
2023-03-06T01:34:17.636Z,87.60
2023-03-06T01:36:45.454Z,87.80
2023-03-06T01:39:13.348Z,89.30
2023-03-06T01:41:42.481Z,89.30
2023-03-06T01:44:13.727Z,89.00
2023-03-06T01:46:42.946Z,89.30
2023-03-06T01:49:16.738Z,89.30
2023-03-06T01:51:49.388Z,89.60
2023-03-06T01:54:21.226Z,89.70
2023-03-06T01:56:52.732Z,89.60
2023-03-06T01:59:22.333Z,89.20
2023-03-06T02:01:51.260Z,88.50
2023-03-06T02:04:20.416Z,88.20
2023-03-06T02:06:49.396Z,88.70
2023-03-06T02:09:17.466Z,89.60
2023-03-06T02:11:46.288Z,90.20
2023-03-06T02:14:18.073Z,90.10
2023-03-06T02:16:46.053Z,90.00
2023-03-06T02:19:23.211Z,90.00
2023-03-06T02:21:51.240Z,90.00
2023-03-06T02:24:30.573Z,90.10
2023-03-06T02:27:01.974Z,90.00
2023-03-06T02:29:31.179Z,90.10
2023-03-06T02:31:59.287Z,90.00
2023-03-06T02:35:07.126Z,90.00
2023-03-06T02:37:34.984Z,90.20
2023-03-06T02:40:12.270Z,90.20
2023-03-06T02:42:47.644Z,90.40
2023-03-06T02:45:17.780Z,90.30
2023-03-06T02:47:45.557Z,90.80
2023-03-06T02:50:13.617Z,91.00
2023-03-06T02:52:41.452Z,91.10
2023-03-06T02:55:10.165Z,91.10
2023-03-06T02:57:37.944Z,91.10
2023-03-06T03:00:08.537Z,91.20
2023-03-06T03:02:36.519Z,91.30
2023-03-06T03:05:04.571Z,91.30
2023-03-06T03:07:32.336Z,91.40
2023-03-06T03:10:00.175Z,90.90
2023-03-06T03:12:28.700Z,90.80
2023-03-06T03:14:57.072Z,91.30
2023-03-06T03:17:26.429Z,91.50
2023-03-06T03:19:54.232Z,91.40
2023-03-06T03:22:22.083Z,91.10
2023-03-06T03:24:49.919Z,91.00
2023-03-06T03:27:17.869Z,91.30
2023-03-06T03:29:45.668Z,91.40
2023-03-06T03:32:13.478Z,91.50
2023-03-06T03:34:42.723Z,91.80
2023-03-06T03:37:10.812Z,91.90
2023-03-06T03:39:38.654Z,92.00
2023-03-06T03:42:07.007Z,91.70
2023-03-06T03:44:34.919Z,91.60
2023-03-06T03:47:02.765Z,91.50
2023-03-06T03:49:30.586Z,91.70
2023-03-06T03:51:59.672Z,91.40
2023-03-06T03:54:27.560Z,91.60
2023-03-06T03:56:55.409Z,91.40
2023-03-06T03:59:23.536Z,91.50
2023-03-06T04:01:52.205Z,91.60
2023-03-06T04:04:20.074Z,92.00
2023-03-06T04:06:53.737Z,92.00
2023-03-06T04:09:23.203Z,92.00
2023-03-06T04:11:50.976Z,92.00
2023-03-06T04:14:18.769Z,91.90
2023-03-06T04:16:46.556Z,91.70
2023-03-06T04:19:14.350Z,91.50
2023-03-06T04:21:42.127Z,91.30
2023-03-06T04:24:10.214Z,91.60
2023-03-06T04:26:39.353Z,91.60
2023-03-06T04:29:07.372Z,91.30
2023-03-06T04:31:35.322Z,91.20
2023-03-06T04:34:03.142Z,91.40
2023-03-06T04:36:32.716Z,91.60
2023-03-06T04:39:01.529Z,91.60
2023-03-06T04:41:29.793Z,91.70
2023-03-06T04:43:58.959Z,91.70
2023-03-06T04:50:14.125Z,92.00
2023-03-06T04:52:42.000Z,92.00
2023-03-06T04:55:11.366Z,92.00
2023-03-06T04:57:39.858Z,92.40
2023-03-06T05:00:15.130Z,92.70
2023-03-06T05:02:43.894Z,92.90
2023-03-06T05:05:12.925Z,93.10
2023-03-06T05:07:41.764Z,93.00
2023-03-06T05:10:13.522Z,93.30
2023-03-06T05:12:41.400Z,93.90
2023-03-06T05:15:12.616Z,93.70
2023-03-06T05:17:40.588Z,93.80
2023-03-06T05:20:10.938Z,93.90
2023-03-06T05:22:39.047Z,94.00
2023-03-06T05:25:07.702Z,94.00
2023-03-06T05:27:35.998Z,94.20
2023-03-06T05:30:04.067Z,94.10
2023-03-06T05:32:35.565Z,94.30
2023-03-06T05:35:04.002Z,94.30
2023-03-06T05:37:32.031Z,94.40
2023-03-06T05:40:00.234Z,94.40
2023-03-06T05:42:28.783Z,94.50
2023-03-06T05:44:56.688Z,94.50
2023-03-06T05:47:24.614Z,94.60
2023-03-06T05:49:53.986Z,94.50
2023-03-06T05:52:21.871Z,94.70
2023-03-06T05:54:51.567Z,94.60
2023-03-06T05:57:20.618Z,94.70
2023-03-06T05:59:49.586Z,94.80
2023-03-06T06:02:17.882Z,94.70
2023-03-06T06:04:46.600Z,94.80
2023-03-06T06:07:17.324Z,94.80
2023-03-06T06:09:46.314Z,94.70
2023-03-06T06:12:16.491Z,94.80
2023-03-06T06:14:44.372Z,94.90
2023-03-06T06:17:12.851Z,94.90
2023-03-06T06:19:40.723Z,94.90
2023-03-06T06:22:08.631Z,94.90
2023-03-06T06:24:38.132Z,95.30
2023-03-06T06:27:06.269Z,94.80
2023-03-06T06:29:34.754Z,94.80
2023-03-06T06:32:03.470Z,94.80
2023-03-06T06:34:32.059Z,94.70
2023-03-06T06:36:59.927Z,94.70
2023-03-06T06:39:28.942Z,94.70
2023-03-06T06:42:16.015Z,94.60
2023-03-06T06:44:46.191Z,94.60
2023-03-06T06:47:24.099Z,94.60
2023-03-06T06:49:53.538Z,94.60
2023-03-06T06:52:21.503Z,94.70
2023-03-06T06:54:49.625Z,94.80
2023-03-06T06:57:19.086Z,94.70
2023-03-06T06:59:47.108Z,94.60
2023-03-06T07:02:16.500Z,94.70
2023-03-06T07:05:02.015Z,94.60
2023-03-06T07:07:31.456Z,94.60
2023-03-06T07:09:59.388Z,94.40
2023-03-06T07:12:32.613Z,94.40
2023-03-06T07:15:00.573Z,94.60
2023-03-06T07:17:28.455Z,94.40
2023-03-06T07:19:56.341Z,94.60
2023-03-06T07:22:24.317Z,94.60
2023-03-06T07:24:52.197Z,94.10
2023-03-06T07:27:20.185Z,94.20
2023-03-06T07:29:49.433Z,94.20
2023-03-06T07:32:17.335Z,93.90
2023-03-06T07:34:46.467Z,93.80
2023-03-06T07:37:14.374Z,93.90
2023-03-06T07:39:42.341Z,93.90
2023-03-06T07:42:12.651Z,93.60
2023-03-06T07:44:40.678Z,93.70
2023-03-06T07:47:09.940Z,93.60
2023-03-06T07:49:37.798Z,93.60
2023-03-06T07:52:06.355Z,93.60
2023-03-06T07:54:35.164Z,93.70
2023-03-06T07:57:03.039Z,93.60
2023-03-06T07:59:30.941Z,93.50
2023-03-06T08:01:59.324Z,93.40
2023-03-06T08:04:29.842Z,93.30
2023-03-06T08:06:59.890Z,93.40
2023-03-06T08:09:27.985Z,93.30
2023-03-06T08:11:55.937Z,93.50
2023-03-06T08:14:23.842Z,93.50
2023-03-06T08:16:51.829Z,93.50
2023-03-06T08:19:19.679Z,93.50
2023-03-06T08:21:48.907Z,93.70
2023-03-06T08:24:18.532Z,93.60
2023-03-06T08:26:46.758Z,93.70
2023-03-06T08:29:15.408Z,93.90
2023-03-06T08:31:44.772Z,93.90
2023-03-06T08:34:15.401Z,94.00
2023-03-06T08:36:43.412Z,94.00
2023-03-06T08:39:13.035Z,94.10
2023-03-06T08:41:42.004Z,94.40
2023-03-06T08:44:10.774Z,94.60
2023-03-06T08:46:39.049Z,94.40
2023-03-06T08:49:06.960Z,93.80
2023-03-06T08:51:34.974Z,94.10
2023-03-06T08:54:02.879Z,93.70
2023-03-06T08:56:34.576Z,93.70
2023-03-06T08:59:04.792Z,93.60
2023-03-06T09:01:34.950Z,93.40
2023-03-06T09:04:05.475Z,93.00
2023-03-06T09:06:36.285Z,93.40
2023-03-06T09:09:05.031Z,93.60
2023-03-06T09:11:34.678Z,93.60
2023-03-06T09:14:02.544Z,93.10
2023-03-06T09:16:30.450Z,93.30
2023-03-06T09:18:58.803Z,93.20
2023-03-06T09:21:28.185Z,93.20
2023-03-06T09:23:56.620Z,93.70
2023-03-06T09:26:32.773Z,93.20
2023-03-06T09:29:09.366Z,93.60
2023-03-06T09:31:37.275Z,93.30
2023-03-06T09:34:05.154Z,93.50
2023-03-06T09:36:42.740Z,93.10
2023-03-06T09:39:17.745Z,93.20
2023-03-06T09:41:48.206Z,93.10
2023-03-06T09:44:20.990Z,93.40
2023-03-06T09:47:15.672Z,93.50
2023-03-06T09:50:01.248Z,93.10
2023-03-06T09:52:35.321Z,93.20
2023-03-06T09:55:12.619Z,93.20
2023-03-06T09:57:45.979Z,93.10
2023-03-06T10:00:20.523Z,92.70
2023-03-06T10:02:54.588Z,92.70
2023-03-06T10:05:26.378Z,93.50
2023-03-06T10:07:58.036Z,92.70
2023-03-06T10:10:29.209Z,92.40
2023-03-06T10:13:04.487Z,92.40
2023-03-06T10:15:36.665Z,92.40
2023-03-06T10:18:06.248Z,92.90
2023-03-06T10:20:37.933Z,92.70
2023-03-06T10:23:24.931Z,92.00
2023-03-06T10:26:00.310Z,91.90
2023-03-06T10:28:33.243Z,91.80
2023-03-06T10:31:08.368Z,92.50
2023-03-06T10:33:47.625Z,91.10
2023-03-06T10:36:18.284Z,91.50
2023-03-06T10:38:50.798Z,91.60
2023-03-06T10:41:25.199Z,91.10
2023-03-06T10:44:19.056Z,92.00
2023-03-06T10:46:51.531Z,91.50
2023-03-06T10:49:34.566Z,91.50
2023-03-06T10:52:06.701Z,89.70
2023-03-06T10:54:36.448Z,90.20
2023-03-06T10:57:22.211Z,90.40
2023-03-06T10:59:55.124Z,90.70
2023-03-06T11:02:30.684Z,89.90
2023-03-06T11:05:00.814Z,89.90
2023-03-06T11:07:30.705Z,89.00
2023-03-06T11:10:05.568Z,88.40
2023-03-06T11:12:35.046Z,89.00
2023-03-06T11:15:18.812Z,87.70
2023-03-06T11:17:54.456Z,87.90
2023-03-06T11:20:24.881Z,88.50
2023-03-06T11:22:56.580Z,87.70
2023-03-06T11:25:30.865Z,88.00
2023-03-06T11:28:03.093Z,90.10
2023-03-06T11:30:38.649Z,90.60
2023-03-06T11:33:15.802Z,91.40
2023-03-06T11:35:55.181Z,91.60
2023-03-06T11:38:32.166Z,92.50
2023-03-06T11:41:02.369Z,92.40
2023-03-06T11:43:36.997Z,92.70
2023-03-06T11:46:09.124Z,93.10
2023-03-06T11:48:42.642Z,93.40
2023-03-06T11:51:17.934Z,93.60
2023-03-06T11:53:45.912Z,93.40
2023-03-06T11:56:30.581Z,93.40
2023-03-06T11:59:15.053Z,93.30
2023-03-06T12:01:47.755Z,93.40
2023-03-06T12:04:39.215Z,93.60
2023-03-06T12:07:20.573Z,93.40
2023-03-06T12:09:56.694Z,92.70
2023-03-06T12:12:55.714Z,92.70
2023-03-06T12:15:41.329Z,92.30
2023-03-06T12:18:25.308Z,92.80
2023-03-06T12:21:01.476Z,92.20
2023-03-06T12:23:54.938Z,92.60
2023-03-06T12:26:46.910Z,92.30
2023-03-06T12:29:28.001Z,91.80
2023-03-06T12:32:08.518Z,88.80
2023-03-06T12:35:06.067Z,87.30
2023-03-06T12:37:49.270Z,87.20
2023-03-06T12:40:41.341Z,85.90
2023-03-06T12:43:28.556Z,80.30
2023-03-06T12:45:59.583Z,75.40
2023-03-06T12:48:32.231Z,76.40
2023-03-06T12:51:00.650Z,76.30
2023-03-06T12:53:31.989Z,75.60
2023-03-06T12:56:01.677Z,73.50
2023-03-06T12:58:47.215Z,74.60
2023-03-06T13:01:24.083Z,74.60
2023-03-06T13:04:04.951Z,71.70
2023-03-06T13:06:56.323Z,68.80
2023-03-06T13:09:34.754Z,69.10
2023-03-06T13:12:26.281Z,70.40
2023-03-06T13:14:59.782Z,67.20
2023-03-06T13:17:39.029Z,66.30
2023-03-06T13:20:35.581Z,67.50
2023-03-06T13:23:42.633Z,69.10
2023-03-06T13:26:32.902Z,70.00
2023-03-06T13:29:00.760Z,69.30
2023-03-06T13:31:49.678Z,70.20
2023-03-06T13:34:35.907Z,71.80
2023-03-06T13:37:39.410Z,71.20
2023-03-06T13:40:32.938Z,71.20
2023-03-06T13:43:25.128Z,71.60
2023-03-06T13:45:53.168Z,71.60
2023-03-06T13:48:44.697Z,70.00
2023-03-06T13:51:21.677Z,71.00
2023-03-06T13:54:17.074Z,72.20
2023-03-06T13:57:11.521Z,72.30
2023-03-06T14:00:24.668Z,72.30
2023-03-06T14:03:10.530Z,71.00
2023-03-06T14:05:44.421Z,71.70
2023-03-06T14:08:16.339Z,73.50
2023-03-06T14:10:45.966Z,72.60
2023-03-06T14:13:20.686Z,68.10
2023-03-06T14:15:50.270Z,68.90
2023-03-06T14:18:23.703Z,70.10
2023-03-06T14:20:55.581Z,69.50
2023-03-06T14:23:29.039Z,69.80
2023-03-06T14:26:03.500Z,70.20
2023-03-06T14:28:32.569Z,70.30
2023-03-06T14:31:02.878Z,72.00
2023-03-06T14:33:40.422Z,72.00
2023-03-06T14:36:13.665Z,69.60
2023-03-06T14:38:47.041Z,66.40
2023-03-06T14:41:24.099Z,68.20
2023-03-06T14:43:51.992Z,68.80
2023-03-06T14:46:22.391Z,67.90
2023-03-06T14:48:51.679Z,66.10
2023-03-06T14:51:22.024Z,64.40
2023-03-06T14:53:51.405Z,65.10
2023-03-06T14:56:21.837Z,64.30
2023-03-06T14:58:56.606Z,65.80
2023-03-06T15:01:29.560Z,66.70
2023-03-06T15:04:00.904Z,65.80
2023-03-06T15:06:33.170Z,65.80
2023-03-06T15:09:07.600Z,68.50
2023-03-06T15:11:59.814Z,66.80
2023-03-06T15:14:36.620Z,65.80
2023-03-06T15:17:24.480Z,66.40
2023-03-06T15:19:55.929Z,65.90
2023-03-06T15:22:28.474Z,63.50
2023-03-06T15:25:22.211Z,60.90
2023-03-06T15:27:52.911Z,62.30
2023-03-06T15:30:28.529Z,62.30
2023-03-06T15:33:11.370Z,62.50
2023-03-06T15:35:40.891Z,62.70
2023-03-06T15:38:25.629Z,64.40
2023-03-06T15:40:58.564Z,66.60
2023-03-06T15:43:26.646Z,69.10
2023-03-06T15:45:59.253Z,70.50
2023-03-06T15:48:28.258Z,70.30
2023-03-06T15:50:57.597Z,72.40
2023-03-06T15:53:25.603Z,70.90
2023-03-06T15:55:54.106Z,71.80
2023-03-06T15:58:26.583Z,73.40
2023-03-06T16:00:54.565Z,74.50
2023-03-06T16:03:22.598Z,74.20
2023-03-06T16:05:50.556Z,74.40
2023-03-06T16:08:19.818Z,73.90
2023-03-06T16:10:48.708Z,74.50
2023-03-06T16:13:27.367Z,74.30
2023-03-06T16:15:55.715Z,76.00
2023-03-06T16:18:23.584Z,76.60
2023-03-06T16:20:51.517Z,76.90
2023-03-06T16:23:20.743Z,77.90
2023-03-06T16:25:50.185Z,75.80
2023-03-06T16:28:18.449Z,74.60
2023-03-06T16:30:46.726Z,75.20
2023-03-06T16:33:15.223Z,75.20
2023-03-06T16:35:46.428Z,74.90
2023-03-06T16:38:15.548Z,75.20
2023-03-06T16:40:44.951Z,75.60
2023-03-06T16:43:13.501Z,74.10
2023-03-06T16:45:43.336Z,75.10
2023-03-06T16:48:16.702Z,74.90
2023-03-06T16:50:44.628Z,75.60
2023-03-06T16:53:12.551Z,75.60
2023-03-06T16:55:40.470Z,75.80
2023-03-06T16:58:09.992Z,76.10
2023-03-06T17:00:37.895Z,75.90
2023-03-06T17:03:05.805Z,77.00
2023-03-06T17:05:35.098Z,77.60
2023-03-06T17:08:03.635Z,78.10
2023-03-06T17:10:31.988Z,78.40
2023-03-06T17:12:59.959Z,78.30
2023-03-06T17:15:29.343Z,78.30
2023-03-06T17:17:57.844Z,78.10
2023-03-06T17:20:25.793Z,79.20
2023-03-06T17:22:53.824Z,78.50
2023-03-06T17:25:21.717Z,78.70
2023-03-06T17:27:49.606Z,78.40
2023-03-06T17:30:17.682Z,78.60
2023-03-06T17:32:46.939Z,79.30
2023-03-06T17:35:15.004Z,80.00
2023-03-06T17:37:42.878Z,81.00
2023-03-06T17:40:13.495Z,80.40
2023-03-06T17:42:41.375Z,80.80
2023-03-06T17:45:11.074Z,80.50
2023-03-06T17:47:38.970Z,81.10
2023-03-06T17:50:09.275Z,81.20
2023-03-06T17:52:37.545Z,82.00
2023-03-06T17:55:06.184Z,81.40
2023-03-06T17:57:34.241Z,80.70
2023-03-06T18:00:02.104Z,80.20
2023-03-06T18:02:29.990Z,80.00
2023-03-06T18:04:58.387Z,79.60
2023-03-06T18:07:27.647Z,79.40
2023-03-06T18:09:56.480Z,79.00
2023-03-06T18:12:24.389Z,78.70
2023-03-06T18:14:52.295Z,78.40
2023-03-06T18:17:20.188Z,78.10
2023-03-06T18:19:48.076Z,78.10
2023-03-06T18:22:16.019Z,77.50
2023-03-06T18:24:45.467Z,77.70
2023-03-06T18:27:13.402Z,77.40
2023-03-06T18:29:41.689Z,77.10
2023-03-06T18:32:10.756Z,76.90
2023-03-06T18:34:38.848Z,78.00
2023-03-06T18:37:07.016Z,77.90
2023-03-06T18:39:35.077Z,77.80
2023-03-06T18:42:04.335Z,77.80
2023-03-06T18:44:32.198Z,77.90
2023-03-06T18:47:00.154Z,78.10
2023-03-06T18:49:28.103Z,77.90
2023-03-06T18:51:55.971Z,78.20
2023-03-06T18:54:24.366Z,78.50
2023-03-06T18:56:52.335Z,78.80
2023-03-06T18:59:21.574Z,78.60
2023-03-06T19:01:49.886Z,78.90
2023-03-06T19:04:17.794Z,79.00
2023-03-06T19:06:45.724Z,79.80
2023-03-06T19:09:13.606Z,79.40
2023-03-06T19:11:42.716Z,79.50
2023-03-06T19:14:11.893Z,80.30
2023-03-06T19:16:41.178Z,80.00
2023-03-06T19:19:09.436Z,80.50
2023-03-06T19:21:37.329Z,80.50
2023-03-06T19:24:06.750Z,80.50
2023-03-06T19:26:34.637Z,81.10
2023-03-06T19:29:02.570Z,81.10
2023-03-06T19:31:30.518Z,80.60
2023-03-06T19:33:59.858Z,80.60
2023-03-06T19:36:33.484Z,80.80
2023-03-06T19:39:03.356Z,80.30
2023-03-06T19:41:31.486Z,80.40
2023-03-06T19:44:02.380Z,80.00
2023-03-06T19:46:31.727Z,79.70
2023-03-06T19:49:02.273Z,79.90
2023-03-06T19:51:30.687Z,80.00
2023-03-06T19:53:59.162Z,79.90
2023-03-06T19:56:30.181Z,80.30
2023-03-06T19:58:58.079Z,80.30
2023-03-06T20:01:28.013Z,80.10
2023-03-06T20:03:58.662Z,79.90
2023-03-06T20:06:31.096Z,79.90
2023-03-06T20:08:59.050Z,79.40
2023-03-06T20:11:29.778Z,79.70
2023-03-06T20:13:58.920Z,79.40
2023-03-06T20:16:28.010Z,79.40
2023-03-06T20:18:58.590Z,79.40
2023-03-06T20:21:28.638Z,79.30
2023-03-06T20:23:58.035Z,79.70
2023-03-06T20:26:27.689Z,80.00
2023-03-06T20:28:56.109Z,80.50
2023-03-06T20:31:26.029Z,80.40
2023-03-06T20:33:55.212Z,80.80
2023-03-06T20:36:25.132Z,81.40
2023-03-06T20:38:54.612Z,81.70
2023-03-06T20:41:24.947Z,82.60
2023-03-06T20:43:53.687Z,83.20
2023-03-06T20:46:23.553Z,83.20
2023-03-06T20:48:53.013Z,83.50
2023-03-06T20:51:22.607Z,83.20
2023-03-06T20:53:52.960Z,83.10
2023-03-06T20:56:25.460Z,83.00
2023-03-06T20:58:53.707Z,83.20
2023-03-06T21:01:22.912Z,82.90
2023-03-06T21:03:51.215Z,83.00
2023-03-06T21:06:20.405Z,83.90
2023-03-06T21:08:48.639Z,82.90
2023-03-06T21:11:16.629Z,82.60
2023-03-06T21:13:46.107Z,82.20
2023-03-06T21:16:15.749Z,81.90
2023-03-06T21:18:44.079Z,81.70
2023-03-06T21:21:14.414Z,81.60
2023-03-06T21:23:42.310Z,81.40
2023-03-06T21:26:13.387Z,81.30
2023-03-06T21:28:41.314Z,81.10
2023-03-06T21:31:13.094Z,80.90
2023-03-06T21:33:41.279Z,81.00
2023-03-06T21:36:09.741Z,81.10
2023-03-06T21:38:38.085Z,81.10
2023-03-06T21:41:10.850Z,81.10
2023-03-06T21:43:38.762Z,81.20
2023-03-06T21:46:07.085Z,81.10
2023-03-06T21:48:36.778Z,80.80
2023-03-06T21:51:06.812Z,81.00
2023-03-06T21:53:34.765Z,80.80
2023-03-06T21:56:02.966Z,81.00
2023-03-06T21:58:31.083Z,81.40
2023-03-06T22:00:59.149Z,81.40
2023-03-06T22:03:28.561Z,81.40
2023-03-06T22:05:57.816Z,81.40
2023-03-06T22:08:25.746Z,81.30
2023-03-06T22:10:53.700Z,81.00
2023-03-06T22:13:22.217Z,80.80
2023-03-06T22:15:51.589Z,80.40
2023-03-06T22:18:19.783Z,80.30
2023-03-06T22:20:47.667Z,79.90
2023-03-06T22:23:16.993Z,80.10
2023-03-06T22:25:44.863Z,80.20
2023-03-06T22:28:13.108Z,80.00
2023-03-06T22:30:41.072Z,80.00
2023-03-06T22:33:09.046Z,80.20
2023-03-06T22:35:36.999Z,80.10
2023-03-06T22:38:04.947Z,80.10
2023-03-06T22:40:34.548Z,80.20
2023-03-06T22:43:02.425Z,80.00
2023-03-06T22:45:30.290Z,80.30
2023-03-06T22:48:10.100Z,80.40
2023-03-06T22:50:38.857Z,80.50
2023-03-06T22:53:06.774Z,80.60
2023-03-06T22:55:37.195Z,80.50
2023-03-06T22:58:05.084Z,80.60
2023-03-06T23:00:32.977Z,80.80
2023-03-06T23:03:01.219Z,81.10
2023-03-06T23:05:29.819Z,81.10
2023-03-06T23:07:57.704Z,80.50
2023-03-06T23:10:25.809Z,80.30
2023-03-06T23:12:55.008Z,80.50
2023-03-06T23:15:22.875Z,81.00
2023-03-06T23:17:52.596Z,80.30
2023-03-06T23:20:20.481Z,80.30
2023-03-06T23:22:48.374Z,81.10
2023-03-06T23:25:16.544Z,80.30
2023-03-06T23:27:44.406Z,80.40
2023-03-06T23:30:14.946Z,80.60
2023-03-06T23:32:45.481Z,80.60
2023-03-06T23:35:13.921Z,81.10
2023-03-06T23:37:41.778Z,81.10
2023-03-06T23:40:11.048Z,81.10
2023-03-06T23:42:38.936Z,81.30
2023-03-06T23:45:08.201Z,81.20
2023-03-06T23:47:37.468Z,80.20
2023-03-06T23:50:06.407Z,79.40
2023-03-06T23:52:34.328Z,79.60
2023-03-06T23:55:02.245Z,79.50
2023-03-06T23:57:31.248Z,79.40
2023-03-06T23:59:59.164Z,79.70
